LOWSLOWL [4711]

Guest
Details From LOWS - Salzburg Maxglan
To LOWL - Linz Hoersching
Flight Number 4711
Tags Real Commercial Decoded
Created
Modified
Stats Distance 54 nm / 99 km
Max Altitude 0 ft / 0 m
Waypoints 2
Social Downloads 6
Likes 0
Share VATSIM

Download

Looking for another format? Having issues loading an existing format? Contact us
Advertisement - Login to hide

Notes

Decoded

Route

LOWS LOWL

ID Type Via Altitude Latitude Longitude Leg Dist Tot Dist Heading (true) Name
O LOWS APT - 0 ft / 0 m 47.80472˚ 12.99717˚ - 0 nm - -
O LOWL APT - 0 ft / 0 m 48.23240˚ 14.16739˚ 53 nm 53 nm 61° / 62° -

Altitude Profile

Advertisement - Login to hide

LOWS

Details ICAO LOWS (SZG)
Name Salzburg Maxglan
Region Austria
Timezone Europe/Vienna (UTC+2.0)
Stats Elevation 1,411 ft / 430 m (AMSL)
Location 47.793333° 13.004333°
Runways 1
Magnetic Variation 3.480° E

METAR

LOWS 231720Z 16005KT 9999 FEW070 BKN090 17/15 Q1017 NOSIG

Decode

TAF

TAF LOWS 231115Z 2312/2412 34006KT 9999 SCT050 FEW060CB BKN300 TX24/2315Z TN13/2404Z TEMPO 2313/2317 VRB15G25KT 8000 TSRA SCT050CB BKN070 BECMG 2317/2319 15005KT PROB30 TEMPO 2323/2409 6000 SHRA SCT012 SCT030CB BKN040 TEMPO 2409/2412 VRB15G25KT 6000 TSRA SCT030CB BKN050

Decode

Departure Runways

ID Width Length Bearing (true) Bearing (mag) Surface Threshold Offset Overrun Length
16 148 ft / 45 m 9,024 ft / 2,751 m 157.08° 153.60° Concrete 656 ft / 200 m 0 ft / 0 m
34 148 ft / 45 m 9,024 ft / 2,751 m 337.09° 333.61° Concrete 787 ft / 240 m 0 ft / 0 m

LOWL

Details ICAO LOWL (LNZ)
Name Linz Hoersching
Region Austria
Timezone Europe/Vienna (UTC+2.0)
Stats Elevation 978 ft / 298 m (AMSL)
Location 48.233219° 14.187513°
Runways 1
Magnetic Variation 3.779° E

METAR

LOWL 231720Z AUTO 10007KT 9999 //////CB FEW009 OVC110 23/12 Q1016 NOSIG

Decode

TAF

TAF LOWL 231115Z 2312/2412 08005KT 9999 FEW060 TX26/2314Z TN14/2404Z PROB30 TEMPO 2313/2317 10010KT FEW060CB TEMPO 2403/2412 SCT025 PROB40 TEMPO 2410/2412 11012KT SHRA BKN030 FEW040CB

Decode

Destination Runways

ID Width Length Bearing (true) Bearing (mag) Surface Threshold Offset Overrun Length
09 197 ft / 60 m 9,802 ft / 2,988 m 86.49° 82.71° Asphalt 820 ft / 250 m 0 ft / 0 m
27 197 ft / 60 m 9,802 ft / 2,988 m 266.52° 262.74° Asphalt 492 ft / 150 m 0 ft / 0 m

Approach Navaids

Runway Type Ident Frequency Range Bearing (true) Bearing (mag) Slope Elevation
09 Localiser OEM 110.55 MHz 18 nm / 33 km 86.63° 82.85° - 955 ft / 291 m (AMSL)
09 Glidescope OEM 110.55 MHz 12 nm / 22 km 86.00° 82.22° 3.00° 964 ft / 294 m (AMSL)
09 DME OEM 110.55 MHz 18 nm / 33 km - - - 964 ft / 294 m (AMSL)
27 Localiser OEL 109.30 MHz 18 nm / 33 km 266.76° 262.99° - 978 ft / 298 m (AMSL)
27 Glidescope OEL 109.30 MHz 10 nm / 19 km 266.50° 262.72° 3.00° 996 ft / 304 m (AMSL)
27 DME OEL 109.30 MHz 18 nm / 33 km - - - 996 ft / 304 m (AMSL)

Popular Alternatives